sensor_id;sensor_type;location;lat;lon;timestamp;P1;durP1;ratioP1;P2;durP2;ratioP2
50393;SDS011;36308;46.312;25.288;2024-03-06T00:01:39;19.20;;;10.75;;
50393;SDS011;36308;46.312;25.288;2024-03-06T00:04:04;22.75;;;11.00;;
50393;SDS011;36308;46.312;25.288;2024-03-06T00:06:30;22.80;;;11.50;;
50393;SDS011;36308;46.312;25.288;2024-03-06T00:08:55;19.60;;;10.70;;
50393;SDS011;36308;46.312;25.288;2024-03-06T00:11:21;21.30;;;9.63;;
50393;SDS011;36308;46.312;25.288;2024-03-06T00:13:47;19.05;;;10.43;;
50393;SDS011;36308;46.312;25.288;2024-03-06T00:16:14;19.48;;;11.15;;
50393;SDS011;36308;46.312;25.288;2024-03-06T00:18:39;22.02;;;11.13;;
50393;SDS011;36308;46.312;25.288;2024-03-06T00:21:05;17.35;;;9.55;;
50393;SDS011;36308;46.312;25.288;2024-03-06T00:23:31;17.05;;;8.63;;
50393;SDS011;36308;46.312;25.288;2024-03-06T00:25:57;20.77;;;8.80;;
50393;SDS011;36308;46.312;25.288;2024-03-06T00:28:22;16.17;;;8.38;;
50393;SDS011;36308;46.312;25.288;2024-03-06T00:30:49;18.30;;;9.32;;
50393;SDS011;36308;46.312;25.288;2024-03-06T00:33:14;21.63;;;9.77;;
50393;SDS011;36308;46.312;25.288;2024-03-06T00:35:40;20.42;;;10.57;;
50393;SDS011;36308;46.312;25.288;2024-03-06T00:38:06;18.88;;;10.13;;
50393;SDS011;36308;46.312;25.288;2024-03-06T00:40:31;20.17;;;10.43;;
50393;SDS011;36308;46.312;25.288;2024-03-06T00:42:57;22.35;;;11.05;;
50393;SDS011;36308;46.312;25.288;2024-03-06T00:45:23;22.23;;;11.63;;
50393;SDS011;36308;46.312;25.288;2024-03-06T00:47:49;23.90;;;11.63;;
50393;SDS011;36308;46.312;25.288;2024-03-06T00:50:15;20.20;;;10.60;;
50393;SDS011;36308;46.312;25.288;2024-03-06T00:52:42;23.27;;;10.05;;
50393;SDS011;36308;46.312;25.288;2024-03-06T00:55:08;16.90;;;8.60;;
50393;SDS011;36308;46.312;25.288;2024-03-06T00:57:35;19.33;;;8.88;;
50393;SDS011;36308;46.312;25.288;2024-03-06T01:00:01;16.75;;;8.90;;
50393;SDS011;36308;46.312;25.288;2024-03-06T01:02:35;19.80;;;10.02;;
50393;SDS011;36308;46.312;25.288;2024-03-06T01:05:01;16.58;;;9.00;;
50393;SDS011;36308;46.312;25.288;2024-03-06T01:07:28;15.90;;;8.57;;
50393;SDS011;36308;46.312;25.288;2024-03-06T01:09:55;17.83;;;9.77;;
50393;SDS011;36308;46.312;25.288;2024-03-06T01:12:22;21.30;;;9.15;;
50393;SDS011;36308;46.312;25.288;2024-03-06T01:18:10;19.88;;;8.48;;
50393;SDS011;36308;46.312;25.288;2024-03-06T01:20:35;17.17;;;9.25;;
50393;SDS011;36308;46.312;25.288;2024-03-06T01:23:01;19.65;;;9.88;;
50393;SDS011;36308;46.312;25.288;2024-03-06T01:28:48;21.30;;;9.57;;
50393;SDS011;36308;46.312;25.288;2024-03-06T01:31:14;18.70;;;9.48;;
50393;SDS011;36308;46.312;25.288;2024-03-06T01:33:39;18.80;;;10.05;;
50393;SDS011;36308;46.312;25.288;2024-03-06T01:36:05;22.60;;;9.82;;
50393;SDS011;36308;46.312;25.288;2024-03-06T01:38:30;21.23;;;10.90;;
50393;SDS011;36308;46.312;25.288;2024-03-06T01:40:56;18.20;;;10.40;;
50393;SDS011;36308;46.312;25.288;2024-03-06T01:43:22;18.80;;;10.30;;
50393;SDS011;36308;46.312;25.288;2024-03-06T01:45:50;19.50;;;10.63;;
50393;SDS011;36308;46.312;25.288;2024-03-06T01:48:22;18.67;;;10.75;;
50393;SDS011;36308;46.312;25.288;2024-03-06T01:50:52;18.75;;;11.65;;
50393;SDS011;36308;46.312;25.288;2024-03-06T01:53:20;17.95;;;11.20;;
50393;SDS011;36308;46.312;25.288;2024-03-06T01:55:46;15.77;;;9.88;;
50393;SDS011;36308;46.312;25.288;2024-03-06T01:58:13;21.33;;;10.45;;
50393;SDS011;36308;46.312;25.288;2024-03-06T02:00:39;20.42;;;9.65;;
50393;SDS011;36308;46.312;25.288;2024-03-06T02:03:05;16.88;;;9.18;;
50393;SDS011;36308;46.312;25.288;2024-03-06T02:05:31;19.70;;;10.27;;
50393;SDS011;36308;46.312;25.288;2024-03-06T02:07:58;21.17;;;10.40;;
50393;SDS011;36308;46.312;25.288;2024-03-06T02:10:27;23.35;;;10.93;;
50393;SDS011;36308;46.312;25.288;2024-03-06T02:12:53;26.80;;;11.10;;
50393;SDS011;36308;46.312;25.288;2024-03-06T02:15:19;25.00;;;12.93;;
50393;SDS011;36308;46.312;25.288;2024-03-06T02:17:48;27.30;;;13.40;;
50393;SDS011;36308;46.312;25.288;2024-03-06T02:20:13;25.02;;;13.00;;
50393;SDS011;36308;46.312;25.288;2024-03-06T02:22:40;27.25;;;14.32;;
50393;SDS011;36308;46.312;25.288;2024-03-06T02:25:06;23.48;;;11.07;;
50393;SDS011;36308;46.312;25.288;2024-03-06T02:27:32;21.88;;;11.18;;
50393;SDS011;36308;46.312;25.288;2024-03-06T02:29:58;22.23;;;10.73;;
50393;SDS011;36308;46.312;25.288;2024-03-06T02:32:23;18.77;;;10.10;;
50393;SDS011;36308;46.312;25.288;2024-03-06T02:34:50;22.52;;;10.52;;
50393;SDS011;36308;46.312;25.288;2024-03-06T02:37:16;19.98;;;9.75;;
50393;SDS011;36308;46.312;25.288;2024-03-06T02:39:41;19.83;;;10.15;;
50393;SDS011;36308;46.312;25.288;2024-03-06T02:42:07;23.15;;;11.82;;
50393;SDS011;36308;46.312;25.288;2024-03-06T02:44:32;22.83;;;10.38;;
50393;SDS011;36308;46.312;25.288;2024-03-06T02:46:58;21.27;;;10.50;;
50393;SDS011;36308;46.312;25.288;2024-03-06T02:49:24;20.50;;;9.73;;
50393;SDS011;36308;46.312;25.288;2024-03-06T02:51:50;19.85;;;8.50;;
50393;SDS011;36308;46.312;25.288;2024-03-06T02:54:16;17.83;;;8.63;;
50393;SDS011;36308;46.312;25.288;2024-03-06T02:56:42;18.63;;;9.93;;
50393;SDS011;36308;46.312;25.288;2024-03-06T02:59:07;19.98;;;8.75;;
50393;SDS011;36308;46.312;25.288;2024-03-06T03:01:33;16.75;;;8.32;;
50393;SDS011;36308;46.312;25.288;2024-03-06T03:03:59;15.43;;;8.77;;
50393;SDS011;36308;46.312;25.288;2024-03-06T03:06:25;13.82;;;7.88;;
50393;SDS011;36308;46.312;25.288;2024-03-06T03:08:50;13.40;;;7.82;;
50393;SDS011;36308;46.312;25.288;2024-03-06T03:11:16;11.32;;;7.20;;
50393;SDS011;36308;46.312;25.288;2024-03-06T03:13:41;14.13;;;7.63;;
50393;SDS011;36308;46.312;25.288;2024-03-06T03:16:07;14.88;;;7.53;;
50393;SDS011;36308;46.312;25.288;2024-03-06T03:18:42;12.73;;;7.03;;
50393;SDS011;36308;46.312;25.288;2024-03-06T03:21:08;12.30;;;6.68;;
50393;SDS011;36308;46.312;25.288;2024-03-06T03:23:35;11.68;;;6.93;;
50393;SDS011;36308;46.312;25.288;2024-03-06T03:26:01;16.10;;;7.60;;
50393;SDS011;36308;46.312;25.288;2024-03-06T03:28:29;15.27;;;7.80;;
50393;SDS011;36308;46.312;25.288;2024-03-06T03:30:54;14.20;;;8.35;;
50393;SDS011;36308;46.312;25.288;2024-03-06T03:33:21;17.85;;;8.15;;
50393;SDS011;36308;46.312;25.288;2024-03-06T03:35:47;19.88;;;8.43;;
50393;SDS011;36308;46.312;25.288;2024-03-06T03:38:13;12.93;;;7.38;;
50393;SDS011;36308;46.312;25.288;2024-03-06T03:40:39;12.27;;;7.07;;
50393;SDS011;36308;46.312;25.288;2024-03-06T03:43:04;13.98;;;8.50;;
50393;SDS011;36308;46.312;25.288;2024-03-06T03:45:32;16.45;;;8.73;;
50393;SDS011;36308;46.312;25.288;2024-03-06T03:48:04;14.60;;;8.20;;
50393;SDS011;36308;46.312;25.288;2024-03-06T03:50:30;14.35;;;8.30;;
50393;SDS011;36308;46.312;25.288;2024-03-06T03:52:56;18.00;;;8.70;;
50393;SDS011;36308;46.312;25.288;2024-03-06T03:55:25;18.42;;;9.23;;
50393;SDS011;36308;46.312;25.288;2024-03-06T03:57:51;15.00;;;8.85;;
50393;SDS011;36308;46.312;25.288;2024-03-06T04:00:17;42.72;;;25.90;;
50393;SDS011;36308;46.312;25.288;2024-03-06T04:02:43;92.25;;;59.33;;
50393;SDS011;36308;46.312;25.288;2024-03-06T04:05:09;41.95;;;28.92;;
50393;SDS011;36308;46.312;25.288;2024-03-06T04:07:38;20.38;;;11.90;;
50393;SDS011;36308;46.312;25.288;2024-03-06T04:10:03;19.35;;;11.02;;
50393;SDS011;36308;46.312;25.288;2024-03-06T04:12:29;21.83;;;11.32;;
50393;SDS011;36308;46.312;25.288;2024-03-06T04:14:55;17.75;;;10.32;;
50393;SDS011;36308;46.312;25.288;2024-03-06T04:17:21;35.72;;;25.20;;
50393;SDS011;36308;46.312;25.288;2024-03-06T04:19:46;46.40;;;33.13;;
50393;SDS011;36308;46.312;25.288;2024-03-06T04:22:13;52.50;;;36.40;;
50393;SDS011;36308;46.312;25.288;2024-03-06T04:24:42;58.22;;;38.47;;
50393;SDS011;36308;46.312;25.288;2024-03-06T04:27:08;51.47;;;31.02;;
50393;SDS011;36308;46.312;25.288;2024-03-06T04:29:33;36.75;;;24.65;;
50393;SDS011;36308;46.312;25.288;2024-03-06T04:31:59;41.83;;;25.02;;
50393;SDS011;36308;46.312;25.288;2024-03-06T04:34:24;29.73;;;17.88;;
50393;SDS011;36308;46.312;25.288;2024-03-06T04:36:50;26.95;;;14.75;;
50393;SDS011;36308;46.312;25.288;2024-03-06T04:39:15;23.02;;;13.38;;
50393;SDS011;36308;46.312;25.288;2024-03-06T04:41:41;34.08;;;21.05;;
50393;SDS011;36308;46.312;25.288;2024-03-06T04:44:06;27.63;;;17.45;;
50393;SDS011;36308;46.312;25.288;2024-03-06T04:46:32;48.97;;;23.35;;
50393;SDS011;36308;46.312;25.288;2024-03-06T04:48:57;46.90;;;27.15;;
50393;SDS011;36308;46.312;25.288;2024-03-06T04:51:23;61.05;;;32.47;;
50393;SDS011;36308;46.312;25.288;2024-03-06T04:53:49;44.00;;;24.33;;
50393;SDS011;36308;46.312;25.288;2024-03-06T04:56:14;40.65;;;21.35;;
50393;SDS011;36308;46.312;25.288;2024-03-06T04:58:43;56.97;;;28.25;;
50393;SDS011;36308;46.312;25.288;2024-03-06T05:01:09;100.10;;;44.55;;
50393;SDS011;36308;46.312;25.288;2024-03-06T05:03:35;55.90;;;29.95;;
50393;SDS011;36308;46.312;25.288;2024-03-06T05:06:01;30.23;;;18.27;;
50393;SDS011;36308;46.312;25.288;2024-03-06T05:08:27;28.35;;;14.45;;
50393;SDS011;36308;46.312;25.288;2024-03-06T05:10:54;32.20;;;15.32;;
50393;SDS011;36308;46.312;25.288;2024-03-06T05:13:19;31.05;;;16.52;;
50393;SDS011;36308;46.312;25.288;2024-03-06T05:15:45;32.58;;;18.90;;
50393;SDS011;36308;46.312;25.288;2024-03-06T05:18:10;43.20;;;20.35;;
50393;SDS011;36308;46.312;25.288;2024-03-06T05:20:36;38.15;;;18.25;;
50393;SDS011;36308;46.312;25.288;2024-03-06T05:23:02;29.77;;;14.25;;
50393;SDS011;36308;46.312;25.288;2024-03-06T05:25:28;26.55;;;13.45;;
50393;SDS011;36308;46.312;25.288;2024-03-06T05:27:53;29.23;;;16.10;;
50393;SDS011;36308;46.312;25.288;2024-03-06T05:30:19;24.23;;;12.52;;
50393;SDS011;36308;46.312;25.288;2024-03-06T05:32:45;27.33;;;13.82;;
50393;SDS011;36308;46.312;25.288;2024-03-06T05:35:12;24.05;;;12.68;;
50393;SDS011;36308;46.312;25.288;2024-03-06T05:37:38;30.20;;;15.63;;
50393;SDS011;36308;46.312;25.288;2024-03-06T05:40:03;32.83;;;14.38;;
50393;SDS011;36308;46.312;25.288;2024-03-06T05:42:30;22.30;;;11.52;;
50393;SDS011;36308;46.312;25.288;2024-03-06T05:44:56;24.90;;;12.25;;
50393;SDS011;36308;46.312;25.288;2024-03-06T05:47:25;25.73;;;13.00;;
50393;SDS011;36308;46.312;25.288;2024-03-06T05:49:51;25.00;;;13.75;;
50393;SDS011;36308;46.312;25.288;2024-03-06T05:52:17;70.35;;;35.72;;
50393;SDS011;36308;46.312;25.288;2024-03-06T05:54:43;82.30;;;39.05;;
50393;SDS011;36308;46.312;25.288;2024-03-06T05:57:08;37.35;;;19.08;;
50393;SDS011;36308;46.312;25.288;2024-03-06T05:59:34;39.08;;;21.75;;
50393;SDS011;36308;46.312;25.288;2024-03-06T06:02:00;37.03;;;20.33;;
50393;SDS011;36308;46.312;25.288;2024-03-06T06:04:25;44.70;;;20.95;;
50393;SDS011;36308;46.312;25.288;2024-03-06T06:06:51;46.35;;;23.27;;
50393;SDS011;36308;46.312;25.288;2024-03-06T06:09:17;39.80;;;19.77;;
50393;SDS011;36308;46.312;25.288;2024-03-06T06:11:43;42.33;;;20.77;;
50393;SDS011;36308;46.312;25.288;2024-03-06T06:14:09;38.67;;;20.10;;
50393;SDS011;36308;46.312;25.288;2024-03-06T06:16:38;41.92;;;21.67;;
50393;SDS011;36308;46.312;25.288;2024-03-06T06:19:05;52.28;;;26.30;;
50393;SDS011;36308;46.312;25.288;2024-03-06T06:21:31;50.20;;;29.83;;
50393;SDS011;36308;46.312;25.288;2024-03-06T06:23:57;41.50;;;24.90;;
50393;SDS011;36308;46.312;25.288;2024-03-06T06:26:23;42.65;;;22.55;;
50393;SDS011;36308;46.312;25.288;2024-03-06T06:28:49;37.65;;;18.45;;
50393;SDS011;36308;46.312;25.288;2024-03-06T06:31:15;35.83;;;18.20;;
50393;SDS011;36308;46.312;25.288;2024-03-06T06:33:41;39.00;;;19.67;;
50393;SDS011;36308;46.312;25.288;2024-03-06T06:36:06;45.55;;;18.73;;
50393;SDS011;36308;46.312;25.288;2024-03-06T06:38:32;41.03;;;19.98;;
50393;SDS011;36308;46.312;25.288;2024-03-06T06:40:57;34.50;;;18.77;;
50393;SDS011;36308;46.312;25.288;2024-03-06T06:43:23;43.75;;;18.83;;
50393;SDS011;36308;46.312;25.288;2024-03-06T06:45:49;40.08;;;20.65;;
50393;SDS011;36308;46.312;25.288;2024-03-06T06:48:16;40.90;;;19.30;;
50393;SDS011;36308;46.312;25.288;2024-03-06T06:50:41;33.17;;;16.98;;
50393;SDS011;36308;46.312;25.288;2024-03-06T06:53:07;27.27;;;15.63;;
50393;SDS011;36308;46.312;25.288;2024-03-06T06:55:32;25.73;;;14.27;;
50393;SDS011;36308;46.312;25.288;2024-03-06T06:57:58;24.63;;;13.45;;
50393;SDS011;36308;46.312;25.288;2024-03-06T07:00:24;29.13;;;14.55;;
50393;SDS011;36308;46.312;25.288;2024-03-06T07:02:50;27.23;;;15.32;;
50393;SDS011;36308;46.312;25.288;2024-03-06T07:05:17;30.33;;;15.80;;
50393;SDS011;36308;46.312;25.288;2024-03-06T07:07:43;32.20;;;16.30;;
50393;SDS011;36308;46.312;25.288;2024-03-06T07:10:11;31.30;;;16.50;;
50393;SDS011;36308;46.312;25.288;2024-03-06T07:12:36;36.60;;;17.88;;
50393;SDS011;36308;46.312;25.288;2024-03-06T07:15:02;26.83;;;17.13;;
50393;SDS011;36308;46.312;25.288;2024-03-06T07:17:28;36.30;;;18.60;;
50393;SDS011;36308;46.312;25.288;2024-03-06T07:19:53;33.28;;;17.90;;
50393;SDS011;36308;46.312;25.288;2024-03-06T07:22:19;32.17;;;17.70;;
50393;SDS011;36308;46.312;25.288;2024-03-06T07:24:44;29.63;;;17.08;;
50393;SDS011;36308;46.312;25.288;2024-03-06T07:27:10;31.80;;;16.63;;
50393;SDS011;36308;46.312;25.288;2024-03-06T07:29:36;28.80;;;17.75;;
50393;SDS011;36308;46.312;25.288;2024-03-06T07:32:02;32.00;;;18.13;;
50393;SDS011;36308;46.312;25.288;2024-03-06T07:34:30;29.83;;;16.90;;
50393;SDS011;36308;46.312;25.288;2024-03-06T07:36:56;30.55;;;17.40;;
50393;SDS011;36308;46.312;25.288;2024-03-06T07:39:23;37.60;;;16.90;;
50393;SDS011;36308;46.312;25.288;2024-03-06T07:41:49;29.73;;;16.50;;
50393;SDS011;36308;46.312;25.288;2024-03-06T07:44:14;27.60;;;16.63;;
50393;SDS011;36308;46.312;25.288;2024-03-06T07:46:40;29.85;;;14.95;;
50393;SDS011;36308;46.312;25.288;2024-03-06T07:49:05;21.50;;;11.82;;
50393;SDS011;36308;46.312;25.288;2024-03-06T07:51:34;19.50;;;12.07;;
50393;SDS011;36308;46.312;25.288;2024-03-06T07:54:00;20.52;;;11.38;;
50393;SDS011;36308;46.312;25.288;2024-03-06T07:56:26;22.05;;;10.68;;
50393;SDS011;36308;46.312;25.288;2024-03-06T07:58:53;18.75;;;8.80;;
50393;SDS011;36308;46.312;25.288;2024-03-06T08:01:19;13.52;;;8.75;;
50393;SDS011;36308;46.312;25.288;2024-03-06T08:03:45;15.45;;;9.02;;
50393;SDS011;36308;46.312;25.288;2024-03-06T08:06:11;14.60;;;8.60;;
50393;SDS011;36308;46.312;25.288;2024-03-06T08:08:40;18.77;;;8.52;;
50393;SDS011;36308;46.312;25.288;2024-03-06T08:11:06;17.20;;;8.45;;
50393;SDS011;36308;46.312;25.288;2024-03-06T08:13:32;19.75;;;10.10;;
50393;SDS011;36308;46.312;25.288;2024-03-06T08:15:57;18.63;;;11.15;;
50393;SDS011;36308;46.312;25.288;2024-03-06T08:18:23;25.77;;;13.77;;
50393;SDS011;36308;46.312;25.288;2024-03-06T08:20:48;18.38;;;9.98;;
50393;SDS011;36308;46.312;25.288;2024-03-06T08:23:14;17.42;;;10.35;;
50393;SDS011;36308;46.312;25.288;2024-03-06T08:25:39;19.65;;;10.80;;
50393;SDS011;36308;46.312;25.288;2024-03-06T08:28:05;13.88;;;8.35;;
50393;SDS011;36308;46.312;25.288;2024-03-06T08:30:31;14.05;;;8.18;;
50393;SDS011;36308;46.312;25.288;2024-03-06T08:32:57;15.35;;;8.30;;
50393;SDS011;36308;46.312;25.288;2024-03-06T08:35:23;22.10;;;15.77;;
50393;SDS011;36308;46.312;25.288;2024-03-06T08:37:49;11.85;;;6.70;;
50393;SDS011;36308;46.312;25.288;2024-03-06T08:40:15;11.45;;;5.63;;
50393;SDS011;36308;46.312;25.288;2024-03-06T08:42:45;9.52;;;6.18;;
50393;SDS011;36308;46.312;25.288;2024-03-06T08:45:21;16.10;;;7.30;;
50393;SDS011;36308;46.312;25.288;2024-03-06T08:47:48;14.45;;;6.97;;
50393;SDS011;36308;46.312;25.288;2024-03-06T08:50:14;15.43;;;7.55;;
50393;SDS011;36308;46.312;25.288;2024-03-06T08:52:40;13.70;;;7.43;;
50393;SDS011;36308;46.312;25.288;2024-03-06T08:55:06;18.00;;;8.10;;
50393;SDS011;36308;46.312;25.288;2024-03-06T08:57:33;13.13;;;5.40;;
50393;SDS011;36308;46.312;25.288;2024-03-06T09:03:20;10.38;;;5.95;;
50393;SDS011;36308;46.312;25.288;2024-03-06T09:05:46;13.50;;;6.75;;
50393;SDS011;36308;46.312;25.288;2024-03-06T09:08:11;12.30;;;5.95;;
50393;SDS011;36308;46.312;25.288;2024-03-06T09:10:37;26.55;;;17.50;;
50393;SDS011;36308;46.312;25.288;2024-03-06T09:13:03;11.15;;;6.32;;
50393;SDS011;36308;46.312;25.288;2024-03-06T09:15:29;13.52;;;6.93;;
50393;SDS011;36308;46.312;25.288;2024-03-06T09:17:54;9.85;;;5.25;;
50393;SDS011;36308;46.312;25.288;2024-03-06T09:20:20;9.25;;;4.97;;
50393;SDS011;36308;46.312;25.288;2024-03-06T09:22:45;13.27;;;5.47;;
50393;SDS011;36308;46.312;25.288;2024-03-06T09:25:11;8.02;;;4.60;;
50393;SDS011;36308;46.312;25.288;2024-03-06T09:27:38;11.98;;;5.60;;
50393;SDS011;36308;46.312;25.288;2024-03-06T09:30:04;9.88;;;5.95;;
50393;SDS011;36308;46.312;25.288;2024-03-06T09:32:30;9.93;;;4.45;;
50393;SDS011;36308;46.312;25.288;2024-03-06T09:34:56;11.02;;;5.75;;
50393;SDS011;36308;46.312;25.288;2024-03-06T09:37:21;9.00;;;4.68;;
50393;SDS011;36308;46.312;25.288;2024-03-06T09:39:47;13.02;;;5.07;;
50393;SDS011;36308;46.312;25.288;2024-03-06T09:42:15;10.55;;;5.15;;
50393;SDS011;36308;46.312;25.288;2024-03-06T09:44:41;8.85;;;5.28;;
50393;SDS011;36308;46.312;25.288;2024-03-06T09:47:06;10.25;;;5.28;;
50393;SDS011;36308;46.312;25.288;2024-03-06T09:49:34;12.63;;;5.47;;
50393;SDS011;36308;46.312;25.288;2024-03-06T09:52:00;15.20;;;5.60;;
50393;SDS011;36308;46.312;25.288;2024-03-06T09:54:28;7.18;;;4.45;;
50393;SDS011;36308;46.312;25.288;2024-03-06T09:56:54;10.10;;;5.22;;
50393;SDS011;36308;46.312;25.288;2024-03-06T09:59:22;9.38;;;4.97;;
50393;SDS011;36308;46.312;25.288;2024-03-06T10:01:49;13.05;;;5.43;;
50393;SDS011;36308;46.312;25.288;2024-03-06T10:04:23;10.13;;;4.38;;
50393;SDS011;36308;46.312;25.288;2024-03-06T10:06:52;8.63;;;4.47;;
50393;SDS011;36308;46.312;25.288;2024-03-06T10:09:21;7.53;;;4.53;;
50393;SDS011;36308;46.312;25.288;2024-03-06T10:11:48;12.05;;;5.75;;
50393;SDS011;36308;46.312;25.288;2024-03-06T10:14:13;12.13;;;4.90;;
50393;SDS011;36308;46.312;25.288;2024-03-06T10:16:55;6.53;;;4.28;;
50393;SDS011;36308;46.312;25.288;2024-03-06T10:19:26;14.15;;;7.18;;
50393;SDS011;36308;46.312;25.288;2024-03-06T10:21:56;6.45;;;4.05;;
50393;SDS011;36308;46.312;25.288;2024-03-06T10:24:26;10.20;;;4.50;;
50393;SDS011;36308;46.312;25.288;2024-03-06T10:26:54;22.10;;;11.20;;
50393;SDS011;36308;46.312;25.288;2024-03-06T10:29:22;10.00;;;5.53;;
50393;SDS011;36308;46.312;25.288;2024-03-06T10:34:22;10.13;;;4.75;;
50393;SDS011;36308;46.312;25.288;2024-03-06T10:36:59;9.35;;;4.90;;
50393;SDS011;36308;46.312;25.288;2024-03-06T10:39:29;16.95;;;9.23;;
50393;SDS011;36308;46.312;25.288;2024-03-06T10:41:56;10.18;;;4.55;;
50393;SDS011;36308;46.312;25.288;2024-03-06T10:44:25;30.10;;;17.27;;
50393;SDS011;36308;46.312;25.288;2024-03-06T10:47:02;53.53;;;39.80;;
50393;SDS011;36308;46.312;25.288;2024-03-06T10:49:29;18.73;;;9.80;;
50393;SDS011;36308;46.312;25.288;2024-03-06T10:51:59;8.13;;;5.22;;
50393;SDS011;36308;46.312;25.288;2024-03-06T10:54:31;21.60;;;11.27;;
50393;SDS011;36308;46.312;25.288;2024-03-06T10:57:00;11.98;;;5.13;;
50393;SDS011;36308;46.312;25.288;2024-03-06T10:59:27;13.20;;;4.53;;
50393;SDS011;36308;46.312;25.288;2024-03-06T11:01:54;44.50;;;33.03;;
50393;SDS011;36308;46.312;25.288;2024-03-06T11:04:26;10.20;;;4.88;;
50393;SDS011;36308;46.312;25.288;2024-03-06T11:06:54;8.65;;;4.25;;
50393;SDS011;36308;46.312;25.288;2024-03-06T11:09:21;7.93;;;3.95;;
50393;SDS011;36308;46.312;25.288;2024-03-06T11:11:50;10.52;;;5.15;;
50393;SDS011;36308;46.312;25.288;2024-03-06T11:14:17;9.40;;;4.55;;
50393;SDS011;36308;46.312;25.288;2024-03-06T11:17:00;8.70;;;5.45;;
50393;SDS011;36308;46.312;25.288;2024-03-06T11:31:05;8.55;;;4.18;;
50393;SDS011;36308;46.312;25.288;2024-03-06T11:33:35;8.48;;;4.57;;
50393;SDS011;36308;46.312;25.288;2024-03-06T11:38:56;9.82;;;3.90;;
50393;SDS011;36308;46.312;25.288;2024-03-06T11:41:28;11.05;;;4.13;;
50393;SDS011;36308;46.312;25.288;2024-03-06T11:43:55;7.53;;;3.95;;
50393;SDS011;36308;46.312;25.288;2024-03-06T11:49:22;8.52;;;4.30;;
50393;SDS011;36308;46.312;25.288;2024-03-06T11:52:05;7.78;;;4.55;;
50393;SDS011;36308;46.312;25.288;2024-03-06T11:54:35;8.05;;;4.30;;
50393;SDS011;36308;46.312;25.288;2024-03-06T11:57:02;8.52;;;3.88;;
50393;SDS011;36308;46.312;25.288;2024-03-06T11:59:29;6.38;;;3.38;;
50393;SDS011;36308;46.312;25.288;2024-03-06T12:01:59;7.10;;;4.20;;
50393;SDS011;36308;46.312;25.288;2024-03-06T12:04:26;7.25;;;3.92;;
50393;SDS011;36308;46.312;25.288;2024-03-06T12:06:52;9.80;;;5.30;;
50393;SDS011;36308;46.312;25.288;2024-03-06T12:09:22;6.88;;;4.57;;
50393;SDS011;36308;46.312;25.288;2024-03-06T12:11:47;7.95;;;4.20;;
50393;SDS011;36308;46.312;25.288;2024-03-06T12:14:22;5.32;;;3.95;;
50393;SDS011;36308;46.312;25.288;2024-03-06T12:16:58;7.75;;;4.05;;
50393;SDS011;36308;46.312;25.288;2024-03-06T12:19:25;10.93;;;4.35;;
50393;SDS011;36308;46.312;25.288;2024-03-06T12:21:53;9.10;;;4.20;;
50393;SDS011;36308;46.312;25.288;2024-03-06T12:24:19;8.68;;;4.80;;
50393;SDS011;36308;46.312;25.288;2024-03-06T12:26:45;14.85;;;4.53;;
50393;SDS011;36308;46.312;25.288;2024-03-06T12:29:16;8.88;;;4.72;;
50393;SDS011;36308;46.312;25.288;2024-03-06T12:31:46;7.73;;;4.17;;
50393;SDS011;36308;46.312;25.288;2024-03-06T12:34:14;7.18;;;4.78;;
50393;SDS011;36308;46.312;25.288;2024-03-06T12:36:43;8.65;;;4.72;;
50393;SDS011;36308;46.312;25.288;2024-03-06T12:39:08;7.53;;;4.30;;
50393;SDS011;36308;46.312;25.288;2024-03-06T12:41:41;10.02;;;4.32;;
50393;SDS011;36308;46.312;25.288;2024-03-06T12:44:06;8.68;;;3.72;;
50393;SDS011;36308;46.312;25.288;2024-03-06T12:46:32;6.53;;;4.25;;
50393;SDS011;36308;46.312;25.288;2024-03-06T12:52:19;7.03;;;3.65;;
50393;SDS011;36308;46.312;25.288;2024-03-06T12:54:45;8.90;;;4.10;;
50393;SDS011;36308;46.312;25.288;2024-03-06T12:57:10;10.10;;;4.50;;
50393;SDS011;36308;46.312;25.288;2024-03-06T12:59:36;9.02;;;3.92;;
50393;SDS011;36308;46.312;25.288;2024-03-06T13:02:01;7.97;;;4.10;;
50393;SDS011;36308;46.312;25.288;2024-03-06T13:04:28;13.65;;;7.28;;
50393;SDS011;36308;46.312;25.288;2024-03-06T13:06:53;12.65;;;6.40;;
50393;SDS011;36308;46.312;25.288;2024-03-06T13:09:19;10.30;;;6.30;;
50393;SDS011;36308;46.312;25.288;2024-03-06T13:11:44;14.52;;;7.47;;
50393;SDS011;36308;46.312;25.288;2024-03-06T13:14:10;11.05;;;4.70;;
50393;SDS011;36308;46.312;25.288;2024-03-06T13:16:37;9.02;;;4.43;;
50393;SDS011;36308;46.312;25.288;2024-03-06T13:19:02;10.35;;;4.60;;
50393;SDS011;36308;46.312;25.288;2024-03-06T13:21:28;8.48;;;4.72;;
50393;SDS011;36308;46.312;25.288;2024-03-06T13:23:54;11.82;;;4.22;;
50393;SDS011;36308;46.312;25.288;2024-03-06T13:26:19;35.10;;;21.85;;
50393;SDS011;36308;46.312;25.288;2024-03-06T13:28:46;26.23;;;15.80;;
50393;SDS011;36308;46.312;25.288;2024-03-06T13:31:11;13.13;;;7.10;;
50393;SDS011;36308;46.312;25.288;2024-03-06T13:33:38;7.10;;;4.65;;
50393;SDS011;36308;46.312;25.288;2024-03-06T13:36:03;11.77;;;6.25;;
50393;SDS011;36308;46.312;25.288;2024-03-06T13:38:29;7.10;;;4.47;;
50393;SDS011;36308;46.312;25.288;2024-03-06T13:40:55;26.15;;;16.25;;
50393;SDS011;36308;46.312;25.288;2024-03-06T13:43:20;13.13;;;8.02;;
50393;SDS011;36308;46.312;25.288;2024-03-06T13:45:49;12.85;;;6.72;;
50393;SDS011;36308;46.312;25.288;2024-03-06T13:48:15;11.95;;;5.38;;
50393;SDS011;36308;46.312;25.288;2024-03-06T13:50:42;11.80;;;5.50;;
50393;SDS011;36308;46.312;25.288;2024-03-06T13:53:09;11.00;;;5.03;;
50393;SDS011;36308;46.312;25.288;2024-03-06T13:55:35;13.88;;;5.28;;
50393;SDS011;36308;46.312;25.288;2024-03-06T13:58:00;8.80;;;4.68;;
50393;SDS011;36308;46.312;25.288;2024-03-06T14:00:26;11.68;;;6.40;;
50393;SDS011;36308;46.312;25.288;2024-03-06T14:02:52;36.47;;;21.38;;
50393;SDS011;36308;46.312;25.288;2024-03-06T14:05:18;19.60;;;10.57;;
50393;SDS011;36308;46.312;25.288;2024-03-06T14:07:50;14.45;;;7.90;;
50393;SDS011;36308;46.312;25.288;2024-03-06T14:10:19;16.65;;;9.88;;
50393;SDS011;36308;46.312;25.288;2024-03-06T14:12:46;28.67;;;16.45;;
50393;SDS011;36308;46.312;25.288;2024-03-06T14:15:12;67.15;;;35.17;;
50393;SDS011;36308;46.312;25.288;2024-03-06T14:17:39;42.78;;;24.02;;
50393;SDS011;36308;46.312;25.288;2024-03-06T14:20:05;44.50;;;25.10;;
50393;SDS011;36308;46.312;25.288;2024-03-06T14:22:31;47.47;;;26.63;;
50393;SDS011;36308;46.312;25.288;2024-03-06T14:24:56;35.85;;;21.85;;
50393;SDS011;36308;46.312;25.288;2024-03-06T14:27:22;38.95;;;22.00;;
50393;SDS011;36308;46.312;25.288;2024-03-06T14:29:48;36.67;;;20.80;;
50393;SDS011;36308;46.312;25.288;2024-03-06T14:32:14;31.60;;;20.52;;
50393;SDS011;36308;46.312;25.288;2024-03-06T14:34:43;34.90;;;19.83;;
50393;SDS011;36308;46.312;25.288;2024-03-06T14:37:09;33.75;;;20.48;;
50393;SDS011;36308;46.312;25.288;2024-03-06T14:39:35;31.10;;;18.25;;
50393;SDS011;36308;46.312;25.288;2024-03-06T14:42:00;26.67;;;15.13;;
50393;SDS011;36308;46.312;25.288;2024-03-06T14:44:26;27.67;;;13.10;;
50393;SDS011;36308;46.312;25.288;2024-03-06T14:46:51;39.35;;;21.88;;